首页
METAR-TAF:

METAR-TAF

机场 :

雅典埃莱夫塞里奥斯·韦尼泽洛斯国际机场

雅典, 希腊

纬度: 37-56N, 经度: 023-56E, 海拔: 94米

当前天气观测

该预报发布于25分钟前的19:50 UTC
静风
温度 15°C
湿度 94%
气压 1016 hPa
能见度10公里或以上
少量云层高于1500英尺
散云层高于2500英尺

METAR: LGAV 201950Z 00000KT 9999 FEW015 SCT025 15/14 Q1016 NOSIG

时间: 22:15 (20:15 UTC)

预报

该预报发布于3小时和15分钟前的17:00 UTC
预报有效从20日的 18点(UTC)到 21日的 18点(UTC)
风速10节,风向南转南东
能见度10公里或以上
少量云层高于1500英尺
散云层高于2500英尺
几率 40% :
短暂存在
从 20日的 18点(UTC)到 21日的 06点(UTC)
能見度: 5000
散云层高于1200英尺
多云层高于2500英尺
几率 30% :
短暂存在
从 21日的 03点(UTC)到 21日的 06点(UTC)
能見度: 4000
散云层高于1200英尺
少量云层高于1500英尺, 积雨云.
多云层高于2500英尺
雷暴, 雨
成为
从 21日的 04点(UTC)到 21日的 06点(UTC)
风速15节,风向西转西南

TAF: LGAV 201700Z 2018/2118 16010KT 9999 FEW015 SCT025 PROB40 TEMPO 2018/2106 5000 RA SCT012 BKN025 PROB30 TEMPO 2103/2106 4000 TSRA SCT012 FEW015CB BKN025 BECMG 2104/2106 24015KT

超过4000个机场的气象观测和天气预报(METAR&TAF报告)。

可查询的气象台以黄色和红色小点在地图上表示。

将鼠标移到小点上方,可查看气象台名称。

然后点击查看天气观测和预报。

如需切换地图:点击带黑十字的绿色按钮放大地图;点击带横线的绿色按钮缩小地图;或者点击绿色箭头查看邻近地区的地图。


METAR-TAF: